Time;durP1;ratioP1;P1;durP2;ratioP2;P2;SDS_P1;SDS_P2;PMS_P1;PMS_P2;Temp;Humidity;BMP_temperature;BMP_pressure;BME280_temperature;BME280_humidity;BME280_pressure;Samples;Min_cycle;Max_cycle;Signal;HPM_P1;HPM_P2
2023/09/03 00:01:07;;;;;;;3.53;3.15;;;;;;;;;;4973223;28;20312;-72
2023/09/03 00:03:34;;;;;;;2.83;2.72;;;;;;;;;;4973181;28;20228;-72
2023/09/03 00:06:00;;;;;;;5.28;3.15;;;;;;;;;;4976791;28;20207;-72
2023/09/03 00:08:27;;;;;;;5.20;3.38;;;;;;;;;;4976894;28;20211;-72
2023/09/03 00:10:54;;;;;;;3.35;3.15;;;;;;;;;;4974853;28;20688;-72
2023/09/03 00:13:21;;;;;;;2.95;2.85;;;;;;;;;;4974741;28;20210;-72
2023/09/03 00:15:47;;;;;;;3.38;3.17;;;;;;;;;;4975118;28;20207;-72
2023/09/03 00:18:14;;;;;;;3.53;3.30;;;;;;;;;;4974983;28;20714;-73
2023/09/03 00:20:42;;;;;;;4.75;2.80;;;;;;;;;;4974934;28;20199;-73
2023/09/03 00:23:09;;;;;;;3.13;2.92;;;;;;;;;;4974478;28;20207;-72
2023/09/03 00:25:36;;;;;;;6.22;2.60;;;;;;;;;;4974900;28;20200;-73
2023/09/03 00:28:02;;;;;;;3.00;2.80;;;;;;;;;;4975190;28;20235;-73
2023/09/03 00:30:28;;;;;;;4.45;3.17;;;;;;;;;;4977930;28;20223;-73
2023/09/03 00:32:55;;;;;;;4.68;3.60;;;;;;;;;;4977746;28;20251;-73
2023/09/03 00:35:21;;;;;;;5.47;4.35;;;;;;;;;;4974611;28;20703;-73
2023/09/03 00:37:48;;;;;;;6.95;5.13;;;;;;;;;;4974456;28;20227;-73
2023/09/03 00:40:15;;;;;;;7.70;5.47;;;;;;;;;;4974822;28;20215;-72
2023/09/03 00:42:41;;;;;;;7.10;6.40;;;;;;;;;;4974060;28;20712;-72
2023/09/03 00:45:08;;;;;;;9.57;6.80;;;;;;;;;;4974358;28;20211;-72
2023/09/03 00:47:34;;;;;;;7.65;6.55;;;;;;;;;;4974345;28;20210;-72
2023/09/03 00:50:00;;;;;;;13.02;7.85;;;;;;;;;;4974226;28;20227;-73
2023/09/03 00:52:28;;;;;;;8.82;7.15;;;;;;;;;;4974238;28;20220;-72
2023/09/03 00:54:55;;;;;;;8.40;6.75;;;;;;;;;;4974520;28;20215;-73
2023/09/03 00:57:23;;;;;;;9.95;6.32;;;;;;;;;;4974120;28;20207;-72
2023/09/03 00:59:50;;;;;;;8.90;7.47;;;;;;;;;;4973927;28;20695;-72
2023/09/03 01:02:19;;;;;;;8.02;6.93;;;;;;;;;;4973658;28;20226;-72
2023/09/03 01:04:45;;;;;;;9.55;7.32;;;;;;;;;;4974222;28;20199;-72
2023/09/03 01:07:12;;;;;;;10.98;6.95;;;;;;;;;;4974416;28;20207;-72
2023/09/03 01:09:39;;;;;;;10.07;7.43;;;;;;;;;;4975262;28;20575;-72
2023/09/03 01:12:10;;;;;;;11.15;6.93;;;;;;;;;;4975791;28;20228;-73
2023/09/03 01:14:39;;;;;;;7.32;5.80;;;;;;;;;;4973955;28;20210;-72
2023/09/03 01:17:09;;;;;;;6.45;5.20;;;;;;;;;;4973742;28;20238;-73
2023/09/03 01:19:52;;;;;;;7.75;5.70;;;;;;;;;;4974079;28;20204;-73
2023/09/03 01:22:27;;;;;;;6.80;5.78;;;;;;;;;;4973407;28;20228;-73
2023/09/03 01:25:00;;;;;;;6.63;5.72;;;;;;;;;;4973223;28;20203;-72
2023/09/03 01:27:36;;;;;;;8.18;5.68;;;;;;;;;;4973598;28;20635;-72
2023/09/03 01:30:05;;;;;;;8.93;6.63;;;;;;;;;;4973755;28;20207;-72
2023/09/03 01:32:31;;;;;;;6.97;6.22;;;;;;;;;;4973503;28;20232;-72
2023/09/03 01:34:58;;;;;;;7.25;5.90;;;;;;;;;;4973706;28;20208;-72
2023/09/03 01:37:24;;;;;;;7.47;5.65;;;;;;;;;;4973470;28;20585;-72
2023/09/03 01:39:50;;;;;;;7.45;5.38;;;;;;;;;;4973382;28;20214;-72
2023/09/03 01:42:17;;;;;;;7.57;5.20;;;;;;;;;;4973076;28;20231;-72
2023/09/03 01:44:43;;;;;;;6.72;5.53;;;;;;;;;;4973606;28;20200;-72
2023/09/03 01:47:15;;;;;;;5.65;5.13;;;;;;;;;;4973413;28;20211;-72
2023/09/03 01:49:43;;;;;;;7.43;5.10;;;;;;;;;;4973431;28;20204;-72
2023/09/03 01:52:15;;;;;;;8.05;4.65;;;;;;;;;;4972812;28;20227;-72
2023/09/03 01:54:45;;;;;;;4.50;4.10;;;;;;;;;;4973148;28;20203;-72
2023/09/03 01:57:17;;;;;;;6.10;3.40;;;;;;;;;;4973426;28;20203;-72
2023/09/03 01:59:44;;;;;;;6.60;3.72;;;;;;;;;;4973258;28;20587;-72
2023/09/03 02:02:13;;;;;;;4.35;3.10;;;;;;;;;;4972835;28;20222;-72
2023/09/03 02:04:39;;;;;;;4.70;2.72;;;;;;;;;;4973094;28;20200;-72
2023/09/03 02:07:05;;;;;;;3.75;3.25;;;;;;;;;;4972839;28;20611;-72
2023/09/03 02:09:32;;;;;;;3.67;3.10;;;;;;;;;;4973405;28;20199;-72
2023/09/03 02:11:58;;;;;;;3.92;2.63;;;;;;;;;;4972797;28;20755;-72
2023/09/03 02:14:26;;;;;;;3.70;2.78;;;;;;;;;;4973171;28;20456;-72
2023/09/03 02:16:52;;;;;;;2.55;2.38;;;;;;;;;;4973136;28;20200;-72
2023/09/03 02:19:20;;;;;;;2.67;2.45;;;;;;;;;;4973004;28;20219;-72
2023/09/03 02:21:48;;;;;;;3.38;2.60;;;;;;;;;;4972390;28;20635;-72
2023/09/03 02:24:14;;;;;;;2.35;2.25;;;;;;;;;;4973030;28;20258;-72
2023/09/03 02:26:41;;;;;;;3.60;2.83;;;;;;;;;;4972999;28;20207;-72
2023/09/03 02:29:08;;;;;;;3.33;2.35;;;;;;;;;;4973084;28;20207;-72
2023/09/03 02:31:34;;;;;;;2.45;2.35;;;;;;;;;;4972596;28;20335;-72
2023/09/03 02:34:00;;;;;;;5.05;2.67;;;;;;;;;;4972793;28;20214;-72
2023/09/03 02:36:28;;;;;;;2.88;2.58;;;;;;;;;;4973917;28;20208;-72
2023/09/03 02:38:59;;;;;;;3.92;2.67;;;;;;;;;;4978915;28;20230;-72
2023/09/03 02:41:25;;;;;;;2.63;2.42;;;;;;;;;;4977787;28;20223;-72
2023/09/03 02:43:51;;;;;;;2.83;2.38;;;;;;;;;;4976293;28;20668;-72
2023/09/03 02:46:18;;;;;;;2.78;2.58;;;;;;;;;;4976328;28;20631;-72
2023/09/03 02:48:44;;;;;;;2.65;2.55;;;;;;;;;;4976298;28;20215;-72
2023/09/03 02:51:10;;;;;;;3.53;2.50;;;;;;;;;;4976359;28;20228;-72
2023/09/03 02:53:38;;;;;;;2.38;2.28;;;;;;;;;;4976709;28;20556;-72
2023/09/03 02:56:04;;;;;;;5.60;2.30;;;;;;;;;;4979108;28;20203;-73
2023/09/03 02:58:30;;;;;;;2.70;2.50;;;;;;;;;;4978918;28;20204;-72
2023/09/03 03:00:57;;;;;;;2.70;2.50;;;;;;;;;;4977693;28;20224;-72
2023/09/03 03:03:23;;;;;;;4.03;2.67;;;;;;;;;;4978387;28;20206;-72
2023/09/03 03:05:52;;;;;;;3.13;2.83;;;;;;;;;;4976094;28;20672;-72
2023/09/03 03:08:18;;;;;;;2.95;2.67;;;;;;;;;;4976272;28;20207;-72
2023/09/03 03:10:46;;;;;;;2.72;2.63;;;;;;;;;;4976102;28;20230;-72
2023/09/03 03:13:12;;;;;;;2.63;2.53;;;;;;;;;;4976079;28;20214;-72
2023/09/03 03:15:38;;;;;;;2.50;2.30;;;;;;;;;;4976615;28;20208;-72
2023/09/03 03:18:05;;;;;;;3.88;2.53;;;;;;;;;;4975964;28;20208;-72
2023/09/03 03:20:31;;;;;;;2.92;2.50;;;;;;;;;;4976228;28;20207;-72
2023/09/03 03:22:57;;;;;;;2.70;2.50;;;;;;;;;;4975694;28;20672;-72
2023/09/03 03:25:24;;;;;;;3.67;2.75;;;;;;;;;;4975964;28;20649;-72
2023/09/03 03:27:51;;;;;;;2.50;2.40;;;;;;;;;;4975851;28;20200;-72
2023/09/03 03:30:18;;;;;;;3.97;2.30;;;;;;;;;;4975484;28;20570;-72
2023/09/03 03:32:44;;;;;;;2.78;2.53;;;;;;;;;;4975054;28;20232;-72
2023/09/03 03:35:11;;;;;;;5.53;2.63;;;;;;;;;;4975793;28;20208;-72
2023/09/03 03:37:37;;;;;;;3.03;2.70;;;;;;;;;;4975434;28;20203;-72
2023/09/03 03:40:06;;;;;;;5.30;2.58;;;;;;;;;;4975518;28;20242;-72
2023/09/03 03:42:32;;;;;;;2.70;2.40;;;;;;;;;;4975219;28;20255;-72
2023/09/03 03:45:00;;;;;;;2.53;2.42;;;;;;;;;;4975249;28;20212;-72
2023/09/03 03:47:26;;;;;;;3.33;2.10;;;;;;;;;;4975161;28;20207;-72
2023/09/03 03:49:52;;;;;;;2.60;2.40;;;;;;;;;;4975444;28;20208;-72
2023/09/03 03:52:18;;;;;;;3.38;2.40;;;;;;;;;;4974909;28;20232;-72
2023/09/03 03:54:45;;;;;;;2.78;2.58;;;;;;;;;;4975353;28;20212;-72
2023/09/03 03:57:11;;;;;;;2.97;2.88;;;;;;;;;;4975058;28;20558;-72
2023/09/03 03:59:37;;;;;;;3.70;2.42;;;;;;;;;;4975068;28;20204;-72
2023/09/03 04:02:05;;;;;;;3.00;2.50;;;;;;;;;;4975025;28;20401;-72
2023/09/03 04:04:31;;;;;;;2.85;2.65;;;;;;;;;;4975336;28;20586;-72
2023/09/03 04:06:57;;;;;;;2.72;2.53;;;;;;;;;;4975081;28;20204;-72
2023/09/03 04:09:24;;;;;;;2.30;2.10;;;;;;;;;;4975046;28;20214;-72
2023/09/03 04:11:50;;;;;;;4.70;2.13;;;;;;;;;;4974486;28;20635;-72
2023/09/03 04:14:16;;;;;;;2.30;2.20;;;;;;;;;;4974782;28;20230;-72
2023/09/03 04:16:43;;;;;;;2.70;2.60;;;;;;;;;;4974979;28;20218;-72
2023/09/03 04:19:11;;;;;;;4.30;2.30;;;;;;;;;;4975091;28;20212;-72
2023/09/03 04:21:37;;;;;;;2.85;2.40;;;;;;;;;;4974245;28;20230;-66
2023/09/03 04:24:06;;;;;;;3.17;2.00;;;;;;;;;;4974747;28;20600;-65
2023/09/03 04:26:32;;;;;;;2.40;2.30;;;;;;;;;;4974640;28;20208;-65
2023/09/03 04:28:58;;;;;;;4.13;2.13;;;;;;;;;;4974550;28;20204;-65
2023/09/03 04:31:25;;;;;;;3.45;2.50;;;;;;;;;;4974342;28;20247;-65
2023/09/03 04:33:51;;;;;;;3.28;2.78;;;;;;;;;;4974351;28;20215;-65
2023/09/03 04:36:18;;;;;;;5.38;2.67;;;;;;;;;;4974533;28;20208;-65
2023/09/03 04:38:45;;;;;;;3.85;2.50;;;;;;;;;;4974392;28;20207;-65
2023/09/03 04:41:11;;;;;;;3.35;2.60;;;;;;;;;;4974662;28;20231;-65
2023/09/03 04:43:37;;;;;;;3.10;2.50;;;;;;;;;;4974391;28;20210;-65
2023/09/03 04:46:03;;;;;;;3.97;2.83;;;;;;;;;;4974575;28;20711;-66
2023/09/03 04:48:30;;;;;;;2.35;2.22;;;;;;;;;;4974796;28;20599;-66
2023/09/03 04:50:59;;;;;;;3.22;2.50;;;;;;;;;;4974127;28;20219;-66
2023/09/03 04:53:27;;;;;;;4.65;2.90;;;;;;;;;;4976266;28;20234;-66
2023/09/03 04:55:53;;;;;;;3.15;2.88;;;;;;;;;;4976948;28;20200;-66
2023/09/03 04:58:19;;;;;;;3.67;2.60;;;;;;;;;;4973790;28;20214;-66
2023/09/03 05:00:46;;;;;;;2.63;2.40;;;;;;;;;;4973407;28;20227;-66
2023/09/03 05:03:12;;;;;;;4.25;2.45;;;;;;;;;;4973924;28;20203;-66
2023/09/03 05:05:41;;;;;;;4.32;2.60;;;;;;;;;;4973978;28;20215;-66
2023/09/03 05:08:08;;;;;;;6.15;2.70;;;;;;;;;;4973838;28;20700;-66
2023/09/03 05:10:35;;;;;;;2.88;2.67;;;;;;;;;;4973876;28;20231;-66
2023/09/03 05:13:03;;;;;;;5.25;2.80;;;;;;;;;;4973408;28;20755;-66
2023/09/03 05:15:29;;;;;;;3.15;2.53;;;;;;;;;;4973873;28;20208;-66
2023/09/03 05:17:55;;;;;;;3.55;2.47;;;;;;;;;;4973822;28;20203;-66
2023/09/03 05:20:21;;;;;;;5.22;2.70;;;;;;;;;;4973806;28;20204;-66
2023/09/03 05:22:48;;;;;;;3.67;3.03;;;;;;;;;;4973196;28;20220;-66
2023/09/03 05:25:14;;;;;;;2.92;2.50;;;;;;;;;;4973746;28;20203;-66
2023/09/03 05:27:41;;;;;;;2.70;2.60;;;;;;;;;;4973631;28;20324;-66
2023/09/03 05:30:08;;;;;;;2.67;2.50;;;;;;;;;;4973671;28;20208;-66
2023/09/03 05:32:34;;;;;;;3.17;2.75;;;;;;;;;;4972986;28;20326;-66
2023/09/03 05:35:01;;;;;;;2.55;2.35;;;;;;;;;;4973604;28;20204;-66
2023/09/03 05:37:27;;;;;;;3.47;2.78;;;;;;;;;;4973377;28;20217;-66
2023/09/03 05:39:53;;;;;;;4.45;3.10;;;;;;;;;;4973563;28;20207;-66
2023/09/03 05:42:21;;;;;;;3.17;2.85;;;;;;;;;;4973075;28;20220;-66
2023/09/03 05:44:49;;;;;;;5.43;2.70;;;;;;;;;;4973253;28;20676;-66
2023/09/03 05:47:18;;;;;;;7.78;3.22;;;;;;;;;;4973354;28;20227;-66
2023/09/03 05:49:44;;;;;;;4.10;2.85;;;;;;;;;;4973447;28;20677;-72
2023/09/03 05:52:10;;;;;;;5.07;2.90;;;;;;;;;;4972504;28;20602;-69
2023/09/03 05:54:38;;;;;;;5.20;3.53;;;;;;;;;;4972807;28;20212;-69
2023/09/03 05:57:04;;;;;;;7.07;3.92;;;;;;;;;;4972169;28;20731;-69
2023/09/03 05:59:31;;;;;;;5.22;3.65;;;;;;;;;;4971913;28;20211;-69
2023/09/03 06:01:58;;;;;;;7.82;3.80;;;;;;;;;;4971224;28;20230;-69
2023/09/03 06:04:24;;;;;;;3.63;3.10;;;;;;;;;;4971796;28;20208;-69
2023/09/03 06:06:51;;;;;;;6.82;3.72;;;;;;;;;;4971405;28;20211;-69
2023/09/03 06:09:18;;;;;;;4.75;3.30;;;;;;;;;;4971827;28;20275;-69
2023/09/03 06:11:46;;;;;;;10.25;4.03;;;;;;;;;;4972470;28;20222;-69
2023/09/03 06:14:12;;;;;;;9.85;3.38;;;;;;;;;;4972956;28;20299;-69
2023/09/03 06:16:39;;;;;;;6.35;3.25;;;;;;;;;;4972944;28;20208;-69
2023/09/03 06:19:06;;;;;;;6.70;3.08;;;;;;;;;;4973018;28;20204;-69
2023/09/03 06:21:33;;;;;;;4.47;3.00;;;;;;;;;;4972498;28;20791;-69
2023/09/03 06:23:59;;;;;;;3.13;2.92;;;;;;;;;;4972849;28;20218;-69
2023/09/03 06:26:25;;;;;;;4.25;2.97;;;;;;;;;;4972831;28;20211;-69
2023/09/03 06:28:51;;;;;;;2.83;2.67;;;;;;;;;;4972778;28;20199;-69
2023/09/03 06:31:18;;;;;;;3.22;2.92;;;;;;;;;;4972523;28;20235;-69
2023/09/03 06:33:44;;;;;;;2.75;2.55;;;;;;;;;;4972335;28;20598;-69
2023/09/03 06:36:12;;;;;;;5.55;2.92;;;;;;;;;;4972597;28;20235;-69
2023/09/03 06:38:39;;;;;;;4.07;3.33;;;;;;;;;;4972580;28;20608;-70
2023/09/03 06:41:05;;;;;;;7.32;3.22;;;;;;;;;;4972604;28;20315;-70
2023/09/03 06:43:32;;;;;;;4.55;3.55;;;;;;;;;;4972354;28;20211;-70
2023/09/03 06:45:58;;;;;;;3.88;3.20;;;;;;;;;;4972676;28;20214;-70
2023/09/03 06:48:24;;;;;;;5.18;3.15;;;;;;;;;;4972930;28;20211;-70
2023/09/03 06:50:50;;;;;;;3.38;3.10;;;;;;;;;;4973108;28;20208;-70
2023/09/03 06:53:18;;;;;;;3.25;3.03;;;;;;;;;;4972561;28;20239;-70
2023/09/03 06:55:45;;;;;;;6.15;3.38;;;;;;;;;;4973337;28;20204;-70
2023/09/03 06:58:11;;;;;;;7.55;3.55;;;;;;;;;;4972964;28;20306;-70
2023/09/03 07:00:37;;;;;;;4.30;3.50;;;;;;;;;;4972996;28;20235;-70
2023/09/03 07:03:04;;;;;;;9.20;3.83;;;;;;;;;;4972064;28;20231;-70
2023/09/03 07:05:30;;;;;;;3.42;3.13;;;;;;;;;;4972613;28;20711;-70
2023/09/03 07:07:56;;;;;;;4.18;3.10;;;;;;;;;;4972618;28;20216;-70
2023/09/03 07:10:24;;;;;;;3.47;3.28;;;;;;;;;;4972445;28;20212;-70
2023/09/03 07:12:50;;;;;;;3.80;3.40;;;;;;;;;;4972175;28;20228;-70
2023/09/03 07:15:17;;;;;;;4.40;3.47;;;;;;;;;;4972334;28;20208;-70
2023/09/03 07:17:43;;;;;;;6.10;3.30;;;;;;;;;;4972190;28;20298;-70
2023/09/03 07:20:09;;;;;;;6.63;4.05;;;;;;;;;;4972622;28;20212;-70
2023/09/03 07:22:36;;;;;;;5.13;3.40;;;;;;;;;;4973567;28;20251;-70
2023/09/03 07:25:03;;;;;;;4.25;3.83;;;;;;;;;;4976104;28;20212;-70
2023/09/03 07:27:31;;;;;;;3.55;3.38;;;;;;;;;;4975996;28;20200;-70
2023/09/03 07:29:58;;;;;;;3.60;3.35;;;;;;;;;;4975679;28;20227;-70
2023/09/03 07:32:24;;;;;;;3.88;3.25;;;;;;;;;;4975370;28;20239;-70
2023/09/03 07:34:50;;;;;;;3.55;3.33;;;;;;;;;;4975915;28;20204;-70
2023/09/03 07:37:17;;;;;;;4.15;3.53;;;;;;;;;;4975721;28;20204;-70
2023/09/03 07:39:44;;;;;;;7.32;3.40;;;;;;;;;;4975734;28;20211;-70
2023/09/03 07:42:10;;;;;;;6.45;4.13;;;;;;;;;;4975302;28;20252;-70
2023/09/03 07:44:39;;;;;;;6.90;3.63;;;;;;;;;;4975549;28;20200;-70
2023/09/03 07:47:06;;;;;;;7.38;3.85;;;;;;;;;;4975551;28;20226;-70
2023/09/03 07:49:32;;;;;;;6.75;3.95;;;;;;;;;;4975561;28;20203;-70
2023/09/03 07:51:58;;;;;;;5.43;3.72;;;;;;;;;;4975106;28;20495;-70
2023/09/03 07:54:24;;;;;;;7.60;3.40;;;;;;;;;;4975301;28;20204;-70
2023/09/03 07:56:54;;;;;;;3.90;3.55;;;;;;;;;;4975358;28;20869;-70
2023/09/03 07:59:20;;;;;;;6.15;3.97;;;;;;;;;;4975054;28;20690;-70
2023/09/03 08:01:47;;;;;;;9.18;3.90;;;;;;;;;;4974810;28;20583;-70
2023/09/03 08:04:14;;;;;;;4.85;3.90;;;;;;;;;;4975226;28;20626;-70
2023/09/03 08:06:41;;;;;;;4.72;3.90;;;;;;;;;;4974870;28;20591;-70
2023/09/03 08:09:08;;;;;;;8.60;4.05;;;;;;;;;;4975015;28;20214;-70
2023/09/03 08:11:35;;;;;;;6.68;3.53;;;;;;;;;;4974805;28;20635;-70
2023/09/03 08:14:01;;;;;;;5.22;3.70;;;;;;;;;;4974727;28;20232;-70
2023/09/03 08:16:28;;;;;;;6.97;4.18;;;;;;;;;;4974923;28;20212;-70
2023/09/03 08:18:55;;;;;;;4.05;3.67;;;;;;;;;;4974891;28;20254;-70
2023/09/03 08:21:22;;;;;;;6.70;4.65;;;;;;;;;;4974592;28;20232;-70
2023/09/03 08:23:48;;;;;;;7.07;4.45;;;;;;;;;;4974389;28;20208;-70
2023/09/03 08:26:14;;;;;;;4.72;4.28;;;;;;;;;;4974725;28;20208;-70
2023/09/03 08:28:40;;;;;;;4.15;3.83;;;;;;;;;;4974664;28;20203;-70
2023/09/03 08:31:07;;;;;;;4.65;4.15;;;;;;;;;;4974482;28;20294;-70
2023/09/03 08:33:34;;;;;;;6.75;3.97;;;;;;;;;;4973417;28;20224;-70
2023/09/03 08:36:02;;;;;;;4.72;3.92;;;;;;;;;;4974467;28;20203;-70
2023/09/03 08:38:28;;;;;;;4.57;3.95;;;;;;;;;;4974983;28;20219;-70
2023/09/03 08:40:54;;;;;;;7.30;4.90;;;;;;;;;;4975639;28;20246;-70
2023/09/03 08:43:21;;;;;;;4.32;4.03;;;;;;;;;;4975341;28;20199;-70
2023/09/03 08:45:50;;;;;;;5.00;4.45;;;;;;;;;;4974422;28;20227;-70
2023/09/03 08:48:17;;;;;;;9.43;4.35;;;;;;;;;;4974524;28;20215;-70
2023/09/03 08:50:43;;;;;;;7.07;4.15;;;;;;;;;;4974159;28;20207;-70
2023/09/03 08:53:12;;;;;;;8.60;5.70;;;;;;;;;;4973787;28;20306;-70
2023/09/03 08:55:39;;;;;;;8.60;5.75;;;;;;;;;;4973982;28;20214;-70
2023/09/03 08:58:05;;;;;;;7.03;4.63;;;;;;;;;;4974386;28;20212;-70
2023/09/03 09:00:32;;;;;;;5.72;4.88;;;;;;;;;;4974061;28;20669;-70
2023/09/03 09:03:00;;;;;;;3.88;3.58;;;;;;;;;;4974076;28;20207;-70
2023/09/03 09:05:27;;;;;;;5.78;4.32;;;;;;;;;;4974691;28;20207;-70
2023/09/03 09:07:53;;;;;;;5.65;3.63;;;;;;;;;;4974178;28;20208;-70
2023/09/03 09:10:23;;;;;;;6.43;4.40;;;;;;;;;;4973532;28;20206;-70
2023/09/03 09:12:52;;;;;;;6.90;3.70;;;;;;;;;;4973477;28;20227;-70
2023/09/03 09:15:18;;;;;;;3.97;3.67;;;;;;;;;;4973767;28;20207;-71
2023/09/03 09:17:45;;;;;;;3.47;3.17;;;;;;;;;;4973775;28;20207;-71
2023/09/03 09:20:12;;;;;;;3.78;3.47;;;;;;;;;;4973582;28;20207;-70
2023/09/03 09:22:39;;;;;;;4.60;3.80;;;;;;;;;;4973160;28;20641;-70
2023/09/03 09:25:06;;;;;;;7.00;3.53;;;;;;;;;;4973715;28;20207;-70
2023/09/03 09:27:35;;;;;;;3.75;3.45;;;;;;;;;;4973634;28;20210;-70
2023/09/03 09:30:09;;;;;;;4.88;3.17;;;;;;;;;;4974053;28;20211;-70
2023/09/03 09:32:35;;;;;;;4.30;3.90;;;;;;;;;;4973095;28;20723;-71
2023/09/03 09:35:01;;;;;;;3.83;3.40;;;;;;;;;;4973782;28;20772;-71
2023/09/03 09:37:36;;;;;;;5.95;2.90;;;;;;;;;;4973586;28;20225;-71
2023/09/03 09:40:03;;;;;;;5.82;3.58;;;;;;;;;;4973423;28;20198;-71
2023/09/03 09:42:29;;;;;;;4.72;3.42;;;;;;;;;;4973075;28;20697;-71
2023/09/03 09:44:59;;;;;;;5.00;3.50;;;;;;;;;;4972925;28;20199;-70
2023/09/03 09:47:25;;;;;;;3.38;3.17;;;;;;;;;;4973094;28;20204;-70
2023/09/03 09:49:52;;;;;;;4.68;3.20;;;;;;;;;;4973237;28;20207;-71
2023/09/03 09:52:18;;;;;;;6.55;3.50;;;;;;;;;;4972937;28;20223;-71
2023/09/03 09:54:45;;;;;;;4.07;2.85;;;;;;;;;;4973210;28;20223;-71
2023/09/03 09:57:12;;;;;;;3.80;3.42;;;;;;;;;;4973206;28;20583;-71
2023/09/03 09:59:39;;;;;;;3.78;2.90;;;;;;;;;;4973001;28;20207;-71
2023/09/03 10:02:13;;;;;;;3.85;3.55;;;;;;;;;;4972545;28;20273;-70
2023/09/03 10:04:43;;;;;;;5.25;3.25;;;;;;;;;;4972821;28;20691;-70
2023/09/03 10:07:09;;;;;;;4.65;3.28;;;;;;;;;;4972904;28;20207;-70
2023/09/03 10:09:36;;;;;;;5.15;3.17;;;;;;;;;;4973223;28;20580;-70
2023/09/03 10:12:02;;;;;;;2.72;2.42;;;;;;;;;;4972571;28;20282;-70
2023/09/03 10:14:28;;;;;;;3.13;2.83;;;;;;;;;;4973085;28;20255;-70
2023/09/03 10:16:56;;;;;;;3.05;2.80;;;;;;;;;;4972884;28;20203;-70
2023/09/03 10:19:24;;;;;;;3.90;2.80;;;;;;;;;;4972862;28;20199;-70
2023/09/03 10:21:51;;;;;;;5.28;2.33;;;;;;;;;;4972536;28;20251;-70
2023/09/03 10:24:19;;;;;;;5.53;2.85;;;;;;;;;;4972829;28;20206;-70
2023/09/03 10:26:47;;;;;;;3.20;2.30;;;;;;;;;;4972832;28;20222;-70
2023/09/03 10:29:17;;;;;;;4.85;2.65;;;;;;;;;;4973014;28;20534;-71
2023/09/03 10:31:43;;;;;;;2.60;2.40;;;;;;;;;;4972355;28;20235;-71
2023/09/03 10:34:10;;;;;;;2.92;1.45;;;;;;;;;;4972451;28;20227;-71
2023/09/03 10:36:38;;;;;;;1.35;1.25;;;;;;;;;;4972538;28;20206;-71
2023/09/03 10:39:21;;;;;;;2.30;1.38;;;;;;;;;;4972807;28;20231;-71
2023/09/03 10:41:48;;;;;;;0.90;0.90;;;;;;;;;;4972357;28;20234;-71
2023/09/03 10:44:15;;;;;;;1.10;1.08;;;;;;;;;;4972665;28;20195;-71
2023/09/03 10:46:59;;;;;;;1.42;1.42;;;;;;;;;;4972732;28;20630;-71
2023/09/03 10:49:40;;;;;;;5.32;0.98;;;;;;;;;;4972601;28;20203;-71
2023/09/03 10:52:31;;;;;;;3.45;1.30;;;;;;;;;;4971838;28;20231;-71
2023/09/03 10:55:09;;;;;;;1.10;1.00;;;;;;;;;;4972762;28;20229;-70
2023/09/03 10:57:35;;;;;;;1.25;1.17;;;;;;;;;;4973899;28;20258;-72
2023/09/03 11:00:08;;;;;;;1.33;1.00;;;;;;;;;;4976302;28;20211;-71
2023/09/03 11:02:35;;;;;;;1.10;1.10;;;;;;;;;;4975881;28;20602;-71
2023/09/03 11:05:11;;;;;;;3.20;1.10;;;;;;;;;;4976087;28;20203;-71
2023/09/03 11:07:38;;;;;;;1.58;1.15;;;;;;;;;;4976648;28;20287;-71
2023/09/03 11:10:25;;;;;;;1.08;1.08;;;;;;;;;;4976275;28;20278;-71
2023/09/03 11:12:51;;;;;;;1.35;0.90;;;;;;;;;;4978451;28;20312;-71
2023/09/03 11:15:18;;;;;;;1.55;0.98;;;;;;;;;;4976907;28;20214;-72
2023/09/03 11:17:50;;;;;;;2.33;0.82;;;;;;;;;;4976228;28;20234;-71
2023/09/03 11:20:27;;;;;;;0.75;0.75;;;;;;;;;;4975889;28;20203;-71
2023/09/03 11:22:55;;;;;;;3.22;0.82;;;;;;;;;;4975054;28;20577;-71
2023/09/03 11:25:30;;;;;;;0.82;0.82;;;;;;;;;;4975600;28;20210;-71
2023/09/03 11:27:57;;;;;;;0.57;0.57;;;;;;;;;;4974449;28;20213;-71
2023/09/03 11:30:23;;;;;;;0.90;0.70;;;;;;;;;;4973863;28;20203;-71
2023/09/03 11:32:49;;;;;;;4.28;0.88;;;;;;;;;;4973250;28;20751;-71
2023/09/03 11:35:16;;;;;;;0.70;0.70;;;;;;;;;;4973529;28;20708;-71
2023/09/03 11:37:42;;;;;;;1.08;0.90;;;;;;;;;;4973606;28;20207;-71
2023/09/03 11:40:10;;;;;;;0.80;0.80;;;;;;;;;;4973475;28;20299;-71
2023/09/03 11:42:37;;;;;;;2.05;0.90;;;;;;;;;;4974652;28;20224;-71
2023/09/03 11:45:04;;;;;;;0.90;0.90;;;;;;;;;;4975661;28;20203;-71
2023/09/03 11:47:37;;;;;;;0.90;0.90;;;;;;;;;;4975283;28;20679;-72
2023/09/03 11:50:08;;;;;;;1.30;0.98;;;;;;;;;;4975485;28;20215;-72
2023/09/03 11:52:34;;;;;;;0.90;0.90;;;;;;;;;;4974917;28;20223;-72
2023/09/03 11:55:00;;;;;;;0.63;0.63;;;;;;;;;;4975442;28;20227;-72
2023/09/03 11:57:30;;;;;;;1.17;1.08;;;;;;;;;;4975462;28;20623;-72
2023/09/03 11:59:56;;;;;;;1.10;0.95;;;;;;;;;;4975328;28;20203;-72
2023/09/03 12:02:22;;;;;;;0.93;0.93;;;;;;;;;;4974783;28;20738;-72
2023/09/03 12:04:49;;;;;;;3.20;2.55;;;;;;;;;;4975229;28;20202;-72
2023/09/03 12:07:15;;;;;;;1.67;1.40;;;;;;;;;;4975079;28;20207;-72
2023/09/03 12:09:42;;;;;;;1.08;1.00;;;;;;;;;;4975022;28;20200;-72
2023/09/03 12:12:09;;;;;;;2.30;1.25;;;;;;;;;;4974925;28;20255;-72
2023/09/03 12:14:38;;;;;;;1.52;1.50;;;;;;;;;;4974991;28;20242;-72
2023/09/03 12:17:04;;;;;;;1.65;1.55;;;;;;;;;;4974797;28;20230;-72
2023/09/03 12:19:38;;;;;;;1.42;1.20;;;;;;;;;;4974713;28;20270;-72
2023/09/03 12:22:04;;;;;;;0.70;0.70;;;;;;;;;;4974653;28;20260;-72
2023/09/03 12:24:30;;;;;;;1.13;1.10;;;;;;;;;;4974870;28;20634;-72
2023/09/03 12:27:00;;;;;;;0.90;0.90;;;;;;;;;;4974845;28;20207;-72
2023/09/03 12:29:26;;;;;;;1.33;0.80;;;;;;;;;;4974718;28;20207;-72
2023/09/03 12:31:54;;;;;;;1.25;0.80;;;;;;;;;;4974183;28;20239;-72
2023/09/03 12:34:31;;;;;;;1.00;1.00;;;;;;;;;;4974643;28;20538;-72
2023/09/03 12:36:58;;;;;;;0.98;0.90;;;;;;;;;;4975065;28;20210;-72
2023/09/03 12:39:28;;;;;;;0.77;0.75;;;;;;;;;;4974677;28;20269;-72
2023/09/03 12:41:54;;;;;;;3.22;1.02;;;;;;;;;;4974449;28;20223;-71
2023/09/03 12:44:21;;;;;;;0.73;0.73;;;;;;;;;;4974247;28;20211;-71
2023/09/03 12:46:47;;;;;;;0.98;0.95;;;;;;;;;;4974236;28;20203;-71
2023/09/03 12:49:14;;;;;;;0.93;0.85;;;;;;;;;;4974684;28;20214;-71
2023/09/03 12:51:41;;;;;;;0.80;0.80;;;;;;;;;;4973975;28;20317;-71
2023/09/03 12:54:08;;;;;;;1.58;0.82;;;;;;;;;;4974204;28;20223;-71
2023/09/03 12:56:34;;;;;;;4.15;0.75;;;;;;;;;;4974273;28;20203;-71
2023/09/03 12:59:04;;;;;;;0.80;0.80;;;;;;;;;;4974074;28;20625;-71
2023/09/03 13:01:31;;;;;;;1.00;0.80;;;;;;;;;;4974081;28;20282;-71
2023/09/03 13:03:57;;;;;;;0.70;0.50;;;;;;;;;;4974051;28;20200;-71
2023/09/03 13:06:24;;;;;;;0.70;0.70;;;;;;;;;;4974111;28;20211;-71
2023/09/03 13:08:51;;;;;;;1.15;0.90;;;;;;;;;;4974127;28;20207;-71
2023/09/03 13:11:18;;;;;;;0.80;0.80;;;;;;;;;;4973821;28;20234;-71
2023/09/03 13:13:49;;;;;;;0.63;0.63;;;;;;;;;;4973570;28;20203;-71
2023/09/03 13:16:15;;;;;;;2.15;0.90;;;;;;;;;;4973757;28;20664;-71
2023/09/03 13:18:41;;;;;;;0.88;0.77;;;;;;;;;;4973992;28;20207;-71
2023/09/03 13:21:08;;;;;;;0.70;0.70;;;;;;;;;;4973163;28;20223;-71
2023/09/03 13:23:35;;;;;;;0.82;0.77;;;;;;;;;;4974667;28;20210;-71
2023/09/03 13:26:03;;;;;;;0.80;0.80;;;;;;;;;;4975725;28;20203;-71
2023/09/03 13:28:29;;;;;;;0.85;0.85;;;;;;;;;;4974338;28;20203;-72
2023/09/03 13:30:56;;;;;;;0.70;0.70;;;;;;;;;;4973781;28;20224;-72
2023/09/03 13:33:22;;;;;;;1.55;0.60;;;;;;;;;;4973418;28;20238;-72
2023/09/03 13:35:51;;;;;;;0.90;0.80;;;;;;;;;;4973497;28;20227;-72
2023/09/03 13:38:17;;;;;;;0.70;0.60;;;;;;;;;;4973383;28;20206;-72
2023/09/03 13:40:45;;;;;;;0.60;0.60;;;;;;;;;;4973504;28;20210;-72
2023/09/03 13:43:11;;;;;;;1.08;0.90;;;;;;;;;;4973018;28;20218;-72
2023/09/03 13:45:37;;;;;;;0.80;0.80;;;;;;;;;;4973321;28;20590;-72
2023/09/03 13:48:04;;;;;;;2.20;0.80;;;;;;;;;;4973442;28;20215;-72
2023/09/03 13:50:30;;;;;;;0.70;0.70;;;;;;;;;;4973375;28;20645;-72
2023/09/03 13:52:57;;;;;;;0.90;0.90;;;;;;;;;;4972852;28;20703;-72
2023/09/03 13:55:23;;;;;;;0.80;0.80;;;;;;;;;;4972962;28;20222;-72
2023/09/03 13:57:51;;;;;;;2.15;0.70;;;;;;;;;;4973158;28;20211;-72
2023/09/03 14:00:17;;;;;;;0.55;0.55;;;;;;;;;;4973259;28;20206;-72
2023/09/03 14:02:44;;;;;;;1.48;0.88;;;;;;;;;;4973040;28;20222;-72
2023/09/03 14:05:10;;;;;;;0.68;0.68;;;;;;;;;;4973140;28;20199;-72
2023/09/03 14:07:36;;;;;;;0.80;0.80;;;;;;;;;;4973172;28;20203;-72
2023/09/03 14:10:03;;;;;;;0.70;0.70;;;;;;;;;;4972918;28;20207;-72
2023/09/03 14:12:29;;;;;;;0.77;0.77;;;;;;;;;;4972870;28;20251;-72
2023/09/03 14:14:57;;;;;;;0.90;0.90;;;;;;;;;;4972937;28;20223;-72
2023/09/03 14:17:23;;;;;;;4.32;0.80;;;;;;;;;;4973100;28;20222;-72
2023/09/03 14:19:50;;;;;;;0.90;0.90;;;;;;;;;;4973095;28;20207;-72
2023/09/03 14:22:16;;;;;;;1.10;1.10;;;;;;;;;;4972509;28;20603;-72
2023/09/03 14:24:43;;;;;;;1.40;0.90;;;;;;;;;;4972504;28;20617;-72
2023/09/03 14:27:10;;;;;;;0.80;0.80;;;;;;;;;;4972899;28;20215;-72
2023/09/03 14:29:36;;;;;;;1.58;0.60;;;;;;;;;;4972791;28;20203;-72
2023/09/03 14:32:04;;;;;;;1.70;0.75;;;;;;;;;;4974813;28;20239;-72
2023/09/03 14:34:31;;;;;;;1.05;0.70;;;;;;;;;;4976799;28;20593;-72
2023/09/03 14:36:57;;;;;;;0.80;0.80;;;;;;;;;;4976558;28;20210;-72
2023/09/03 14:39:23;;;;;;;1.40;0.60;;;;;;;;;;4976495;28;20576;-72
2023/09/03 14:41:49;;;;;;;1.60;1.50;;;;;;;;;;4976551;28;20241;-71
2023/09/03 14:44:16;;;;;;;0.95;0.90;;;;;;;;;;4976631;28;20212;-71